Time;durP1;ratioP1;P1;durP2;ratioP2;P2;SDS_P1;SDS_P2;PMS_P1;PMS_P2;Temp;Humidity;BMP_temperature;BMP_pressure;BME280_temperature;BME280_humidity;BME280_pressure;Samples;Min_cycle;Max_cycle;Signal;HPM_P1;HPM_P2
2021/12/28 00:02:23;;;;;;;36.35;20.77;;;1.70;97.30;;;;;;4961602;28;20133;-73
2021/12/28 00:04:48;;;;;;;34.47;20.83;;;1.70;97.30;;;;;;4963771;28;20106;-74
2021/12/28 00:07:14;;;;;;;32.33;19.25;;;1.80;97.30;;;;;;4963066;28;20073;-73
2021/12/28 00:09:40;;;;;;;35.83;21.23;;;1.80;97.30;;;;;;4978671;28;20030;-74
2021/12/28 00:12:06;;;;;;;34.63;21.05;;;1.80;97.20;;;;;;4962030;28;20038;-74
2021/12/28 00:14:36;;;;;;;37.05;22.15;;;1.70;97.30;;;;;;4962659;28;20046;-74
2021/12/28 00:19:47;;;;;;;33.53;20.63;;;1.70;97.20;;;;;;4957616;28;20052;-74
2021/12/28 00:22:13;;;;;;;37.92;21.80;;;1.70;97.20;;;;;;4960759;28;20030;-74
2021/12/28 00:24:39;;;;;;;34.00;20.10;;;1.70;97.30;;;;;;4960704;28;20498;-74
2021/12/28 00:27:05;;;;;;;30.85;20.58;;;1.70;97.20;;;;;;4960778;28;20090;-73
2021/12/28 00:29:31;;;;;;;35.60;20.98;;;1.70;97.30;;;;;;4979467;28;20069;-74
2021/12/28 00:31:57;;;;;;;36.53;21.25;;;1.80;97.30;;;;;;4960448;28;20034;-73
2021/12/28 00:34:22;;;;;;;34.67;21.13;;;1.80;97.30;;;;;;4962508;28;20113;-72
2021/12/28 00:36:48;;;;;;;33.47;19.40;;;1.70;97.20;;;;;;4957817;28;20050;-74
2021/12/28 00:39:13;;;;;;;36.55;20.92;;;1.80;97.20;;;;;;4963682;28;20257;-73
2021/12/28 00:41:39;;;;;;;34.88;21.25;;;1.70;97.20;;;;;;4960186;28;20914;-73
2021/12/28 00:44:05;;;;;;;35.53;21.98;;;1.70;97.20;;;;;;4961587;28;20069;-73
2021/12/28 00:46:31;;;;;;;32.88;20.27;;;1.70;97.30;;;;;;4959649;28;20076;-73
2021/12/28 00:48:56;;;;;;;37.88;21.17;;;1.80;97.30;;;;;;4962357;28;20023;-73
2021/12/28 00:51:22;;;;;;;38.90;20.80;;;1.70;97.20;;;;;;4958498;28;20026;-73
2021/12/28 00:53:47;;;;;;;38.75;22.38;;;1.60;97.20;;;;;;4967620;28;20109;-73
2021/12/28 00:56:13;;;;;;;39.72;21.30;;;1.60;97.30;;;;;;4964763;28;20050;-74
2021/12/28 00:58:38;;;;;;;38.78;22.23;;;1.70;97.30;;;;;;4966251;28;20261;-73
2021/12/28 01:01:05;;;;;;;36.55;21.33;;;1.70;97.30;;;;;;4959574;28;20032;-72
2021/12/28 01:03:34;;;;;;;36.13;21.80;;;1.60;97.30;;;;;;4962976;28;20035;-74
2021/12/28 01:06:01;;;;;;;34.42;20.75;;;1.70;97.40;;;;;;4963740;28;20174;-74
2021/12/28 01:08:27;;;;;;;34.85;21.42;;;1.70;97.30;;;;;;4957584;28;20027;-73
2021/12/28 01:10:53;;;;;;;38.38;22.23;;;1.70;97.40;;;;;;4964827;28;20540;-73
2021/12/28 01:13:20;;;;;;;35.22;20.50;;;1.70;97.40;;;;;;4985310;28;20499;-73
2021/12/28 01:15:47;;;;;;;32.85;21.38;;;1.80;97.40;;;;;;4959393;28;20181;-73
2021/12/28 01:18:12;;;;;;;33.97;21.60;;;1.80;97.40;;;;;;4959202;28;20033;-73
2021/12/28 01:20:40;;;;;;;32.25;21.27;;;1.80;97.30;;;;;;4963179;28;20114;-73
2021/12/28 01:23:07;;;;;;;38.88;22.42;;;1.80;97.30;;;;;;4958579;28;20174;-73
2021/12/28 01:25:33;;;;;;;36.25;21.02;;;1.90;97.30;;;;;;4963657;28;20536;-73
2021/12/28 01:27:59;;;;;;;30.42;19.63;;;1.80;97.20;;;;;;4964901;28;20310;-73
2021/12/28 01:30:26;;;;;;;34.33;20.65;;;1.80;97.10;;;;;;4965646;28;20698;-73
2021/12/28 01:32:52;;;;;;;37.17;21.17;;;1.80;97.20;;;;;;4960361;28;20359;-72
2021/12/28 01:35:19;;;;;;;34.10;20.38;;;1.80;97.20;;;;;;4961369;28;20054;-74
2021/12/28 01:37:45;;;;;;;36.00;21.95;;;1.80;97.20;;;;;;4962607;28;20024;-73
2021/12/28 01:40:14;;;;;;;35.33;21.25;;;1.80;97.30;;;;;;4964521;28;20408;-73
2021/12/28 01:42:58;;;;;;;33.38;19.95;;;1.80;97.40;;;;;;4960092;28;20130;-73
2021/12/28 01:45:59;;;;;;;34.92;20.17;;;1.80;97.30;;;;;;4960127;28;20114;-73
2021/12/28 01:48:28;;;;;;;;;;;1.80;97.30;;;;;;4962578;28;20097;-73
2021/12/28 01:50:57;;;;;;;33.22;19.67;;;1.80;97.40;;;;;;4961200;28;20294;-72
2021/12/28 01:53:24;;;;;;;36.60;20.65;;;1.80;97.30;;;;;;4964846;28;20037;-73
2021/12/28 01:55:53;;;;;;;33.22;19.77;;;1.90;97.30;;;;;;4964644;28;20042;-73
2021/12/28 01:58:19;;;;;;;35.13;20.13;;;1.90;97.30;;;;;;4965200;28;20027;-73
2021/12/28 02:00:47;;;;;;;32.70;19.67;;;2.00;97.30;;;;;;4961320;28;20110;-74
2021/12/28 02:03:16;;;;;;;35.20;20.63;;;2.00;97.20;;;;;;4979566;28;20023;-73
2021/12/28 02:05:42;;;;;;;33.58;19.10;;;2.00;97.20;;;;;;4980272;28;20049;-73
2021/12/28 02:08:09;;;;;;;35.55;21.05;;;2.00;97.10;;;;;;4966088;28;20398;-73
2021/12/28 02:10:36;;;;;;;32.08;19.40;;;2.00;97.10;;;;;;4963147;28;20054;-73
2021/12/28 02:13:03;;;;;;;34.42;20.58;;;2.00;97.10;;;;;;4965668;28;20093;-74
2021/12/28 02:15:28;;;;;;;28.83;18.88;;;2.00;97.20;;;;;;4965388;28;20061;-73
2021/12/28 02:17:54;;;;;;;31.35;19.42;;;1.90;97.20;;;;;;4964479;28;20046;-74
2021/12/28 02:20:21;;;;;;;33.42;19.83;;;1.90;97.10;;;;;;4966246;28;20463;-73
2021/12/28 02:22:47;;;;;;;34.38;20.48;;;1.90;97.20;;;;;;4965601;28;20023;-74
2021/12/28 02:25:14;;;;;;;31.35;19.27;;;2.00;97.20;;;;;;4970130;28;20133;-74
2021/12/28 02:27:40;;;;;;;29.10;17.58;;;2.00;97.20;;;;;;4965806;28;20050;-73
2021/12/28 02:30:10;;;;;;;29.02;19.02;;;2.00;97.20;;;;;;4963399;28;20079;-73
2021/12/28 02:32:38;;;;;;;31.63;18.15;;;2.00;97.20;;;;;;4963443;28;20042;-73
2021/12/28 02:35:09;;;;;;;34.55;20.30;;;2.00;97.20;;;;;;4964578;28;20031;-73
2021/12/28 02:37:34;;;;;;;32.13;19.25;;;2.00;97.20;;;;;;4963835;28;20027;-73
2021/12/28 02:40:00;;;;;;;31.77;19.40;;;2.00;97.10;;;;;;4960573;28;20374;-73
2021/12/28 02:42:26;;;;;;;29.90;18.83;;;2.10;97.20;;;;;;4962105;28;20026;-73
2021/12/28 02:45:02;;;;;;;32.53;19.58;;;2.00;97.00;;;;;;4960435;28;20345;-73
2021/12/28 02:47:29;;;;;;;29.83;18.90;;;2.00;97.10;;;;;;4963271;28;20097;-73
2021/12/28 02:49:55;;;;;;;32.00;19.23;;;2.00;97.10;;;;;;4963629;28;20032;-72
2021/12/28 02:52:21;;;;;;;33.35;19.15;;;2.10;97.10;;;;;;4964211;28;20053;-73
2021/12/28 02:54:47;;;;;;;33.80;20.40;;;2.10;97.10;;;;;;4962579;28;20030;-74
2021/12/28 02:57:13;;;;;;;30.13;19.05;;;2.10;97.10;;;;;;4957745;28;20026;-74
2021/12/28 02:59:49;;;;;;;31.17;19.48;;;2.10;97.00;;;;;;4958619;28;20056;-71
2021/12/28 03:02:16;;;;;;;32.00;18.98;;;2.10;97.00;;;;;;4978034;28;20493;-74
2021/12/28 03:04:42;;;;;;;31.67;19.40;;;2.10;97.00;;;;;;4963502;28;21755;-74
2021/12/28 03:07:08;;;;;;;29.30;18.42;;;2.10;97.00;;;;;;4962742;28;20152;-73
2021/12/28 03:09:35;;;;;;;30.73;19.48;;;2.10;96.90;;;;;;4962363;28;20113;-74
2021/12/28 03:12:01;;;;;;;29.33;17.92;;;2.10;96.90;;;;;;4980730;28;20556;-74
2021/12/28 03:14:26;;;;;;;32.05;19.10;;;2.10;97.00;;;;;;4957782;28;20122;-73
2021/12/28 03:16:52;;;;;;;30.00;18.27;;;2.10;96.90;;;;;;4956077;28;20023;-74
2021/12/28 03:19:17;;;;;;;32.20;18.52;;;2.10;96.90;;;;;;4958325;28;20118;-74
2021/12/28 03:21:43;;;;;;;29.58;18.67;;;2.10;97.00;;;;;;4961844;28;20031;-74
2021/12/28 03:24:09;;;;;;;31.92;18.98;;;2.10;97.00;;;;;;4957473;28;20069;-74
2021/12/28 03:26:35;;;;;;;28.77;18.58;;;2.10;97.00;;;;;;4958923;28;20519;-74
2021/12/28 03:29:01;;;;;;;31.73;19.13;;;2.10;96.90;;;;;;4964447;28;20060;-74
2021/12/28 03:31:27;;;;;;;29.25;18.75;;;2.10;97.00;;;;;;4960113;28;20023;-74
2021/12/28 03:33:54;;;;;;;27.65;18.90;;;2.20;96.90;;;;;;4959865;28;20066;-74
2021/12/28 03:36:23;;;;;;;30.05;18.20;;;2.20;96.90;;;;;;4961426;28;20089;-74
2021/12/28 03:38:48;;;;;;;28.10;17.75;;;2.20;96.90;;;;;;4958466;28;20026;-74
2021/12/28 03:41:17;;;;;;;27.27;17.77;;;2.20;96.80;;;;;;4956959;28;20089;-74
2021/12/28 03:43:45;;;;;;;30.95;18.25;;;2.30;96.80;;;;;;4977026;28;20050;-74
2021/12/28 03:46:10;;;;;;;30.85;18.80;;;2.20;96.70;;;;;;4960048;28;20061;-73
2021/12/28 03:48:37;;;;;;;28.98;18.08;;;2.20;96.70;;;;;;4960060;28;20027;-74
2021/12/28 03:51:03;;;;;;;30.33;18.27;;;2.30;96.70;;;;;;4957380;28;20031;-75
2021/12/28 03:53:28;;;;;;;31.70;17.95;;;2.30;96.70;;;;;;4955505;28;20444;-74
2021/12/28 03:55:54;;;;;;;31.55;18.52;;;2.30;96.70;;;;;;4962699;28;20069;-73
2021/12/28 03:58:20;;;;;;;27.90;18.08;;;2.30;96.70;;;;;;4954314;28;20023;-74
2021/12/28 04:00:47;;;;;;;29.88;18.77;;;2.30;96.70;;;;;;4970639;28;20097;-74
2021/12/28 04:03:13;;;;;;;29.70;17.42;;;2.30;96.60;;;;;;4961700;28;20574;-74
2021/12/28 04:05:40;;;;;;;30.60;18.08;;;2.30;96.60;;;;;;4962994;28;20488;-74
2021/12/28 04:08:06;;;;;;;29.05;17.42;;;2.30;96.60;;;;;;4963648;28;20109;-74
2021/12/28 04:10:38;;;;;;;29.30;17.52;;;2.30;96.60;;;;;;4960238;28;20069;-75
2021/12/28 04:13:04;;;;;;;29.83;17.75;;;2.30;96.60;;;;;;4979185;28;20478;-74
2021/12/28 04:15:30;;;;;;;28.05;17.50;;;2.30;96.60;;;;;;4956608;28;20274;-73
2021/12/28 04:17:56;;;;;;;30.27;18.75;;;2.30;96.60;;;;;;4958936;28;20401;-74
2021/12/28 04:20:23;;;;;;;30.17;17.75;;;2.30;96.60;;;;;;4963558;28;20122;-74
2021/12/28 04:22:49;;;;;;;29.48;17.83;;;2.30;96.60;;;;;;4960691;28;20053;-74
2021/12/28 04:25:16;;;;;;;30.75;18.60;;;2.30;96.60;;;;;;4962220;28;20022;-74
2021/12/28 04:27:43;;;;;;;29.25;18.25;;;2.30;96.60;;;;;;4961785;28;20046;-74
2021/12/28 04:30:11;;;;;;;28.92;19.17;;;2.30;96.60;;;;;;4963548;28;20107;-74
2021/12/28 04:32:38;;;;;;;30.40;17.85;;;2.30;96.60;;;;;;4963000;28;20447;-74
2021/12/28 04:35:04;;;;;;;30.75;18.75;;;2.20;96.50;;;;;;4957898;28;20299;-74
2021/12/28 04:37:30;;;;;;;29.55;18.90;;;2.20;96.50;;;;;;4968202;28;20061;-73
2021/12/28 04:39:56;;;;;;;28.52;17.38;;;2.20;96.60;;;;;;4966477;28;20062;-74
2021/12/28 04:42:21;;;;;;;28.73;17.80;;;2.20;96.60;;;;;;4964010;28;20208;-72
2021/12/28 04:44:50;;;;;;;29.15;18.52;;;2.30;96.60;;;;;;4963227;28;20035;-74
2021/12/28 04:47:16;;;;;;;30.02;17.88;;;2.20;96.60;;;;;;4964814;28;20105;-73
2021/12/28 04:49:42;;;;;;;28.80;18.58;;;2.30;96.70;;;;;;4965777;28;20309;-72
2021/12/28 04:52:08;;;;;;;31.35;19.30;;;2.30;96.70;;;;;;4981606;28;20324;-73
2021/12/28 04:54:33;;;;;;;26.88;15.77;;;2.20;96.70;;;;;;4965663;28;20250;-75
2021/12/28 04:56:59;;;;;;;31.38;19.25;;;2.30;96.70;;;;;;4957692;28;20083;-74
2021/12/28 04:59:24;;;;;;;33.72;20.27;;;2.20;96.80;;;;;;4958270;28;20027;-74
2021/12/28 05:01:50;;;;;;;30.92;18.10;;;2.20;96.80;;;;;;4965104;28;20103;-74
2021/12/28 05:04:15;;;;;;;32.03;19.60;;;2.20;96.90;;;;;;4965664;28;20026;-74
2021/12/28 05:06:41;;;;;;;31.83;19.55;;;2.10;96.80;;;;;;4964244;28;20406;-74
2021/12/28 05:09:10;;;;;;;28.05;18.63;;;2.10;96.90;;;;;;4964521;28;20121;-73
2021/12/28 05:11:36;;;;;;;32.35;20.08;;;2.10;97.00;;;;;;4966198;28;20122;-73
2021/12/28 05:14:04;;;;;;;33.97;21.30;;;2.10;97.10;;;;;;4966228;28;20044;-74
2021/12/28 05:16:30;;;;;;;31.15;18.95;;;2.10;97.20;;;;;;4957530;28;20024;-73
2021/12/28 05:18:57;;;;;;;35.78;21.80;;;2.10;97.30;;;;;;4962126;28;20081;-74
2021/12/28 05:21:23;;;;;;;32.72;20.50;;;2.10;97.40;;;;;;4964194;28;20125;-73
2021/12/28 05:23:48;;;;;;;37.42;21.95;;;2.10;97.50;;;;;;4965638;28;20435;-73
2021/12/28 05:26:14;;;;;;;37.08;22.52;;;2.10;97.60;;;;;;4966961;28;20027;-74
2021/12/28 05:28:41;;;;;;;36.75;22.95;;;2.10;97.60;;;;;;4966038;28;20035;-73
2021/12/28 05:31:07;;;;;;;37.45;21.80;;;2.00;97.70;;;;;;4963406;28;20027;-74
2021/12/28 05:33:33;;;;;;;37.22;22.45;;;2.00;97.80;;;;;;4963694;28;20058;-73
2021/12/28 05:35:59;;;;;;;37.60;21.80;;;2.00;97.80;;;;;;4964741;28;20115;-73
2021/12/28 05:38:24;;;;;;;41.10;22.80;;;2.10;97.80;;;;;;4965049;28;20455;-73
2021/12/28 05:40:50;;;;;;;41.65;23.10;;;2.00;97.90;;;;;;4963957;28;20675;-73
2021/12/28 05:43:16;;;;;;;40.30;23.10;;;2.00;97.90;;;;;;4973661;28;20018;-74
2021/12/28 05:45:43;;;;;;;41.50;23.25;;;2.00;97.90;;;;;;4964665;28;20058;-73
2021/12/28 05:48:10;;;;;;;38.13;22.55;;;2.10;98.00;;;;;;4965160;28;20027;-74
2021/12/28 05:50:36;;;;;;;42.97;23.83;;;2.10;98.00;;;;;;4964696;28;20027;-75
2021/12/28 05:53:02;;;;;;;41.28;23.33;;;2.10;98.00;;;;;;4965676;28;20062;-75
2021/12/28 05:55:27;;;;;;;39.42;22.73;;;2.00;98.10;;;;;;4965447;28;20133;-75
2021/12/28 05:57:53;;;;;;;42.47;24.25;;;2.00;98.10;;;;;;4964397;28;20334;-74
2021/12/28 06:00:18;;;;;;;36.97;22.92;;;2.00;98.10;;;;;;4964246;28;20029;-75
2021/12/28 06:02:45;;;;;;;41.10;23.58;;;2.00;98.20;;;;;;4966800;28;20459;-75
2021/12/28 06:05:11;;;;;;;45.92;23.10;;;2.00;98.20;;;;;;4961559;28;20042;-74
2021/12/28 06:07:36;;;;;;;40.55;23.38;;;2.00;98.20;;;;;;4965010;28;20130;-74
2021/12/28 06:10:05;;;;;;;38.50;23.52;;;2.00;98.30;;;;;;4961786;28;20030;-74
2021/12/28 06:12:31;;;;;;;41.90;23.23;;;2.00;98.30;;;;;;4980360;28;20296;-75
2021/12/28 06:14:57;;;;;;;37.92;23.17;;;2.00;98.30;;;;;;4957764;28;20085;-74
2021/12/28 06:17:22;;;;;;;42.28;24.98;;;1.90;98.30;;;;;;4956134;28;20015;-74
2021/12/28 06:19:48;;;;;;;42.67;24.23;;;1.90;98.60;;;;;;4965673;28;20081;-75
2021/12/28 06:22:14;;;;;;;41.92;25.50;;;1.90;98.70;;;;;;4962326;28;20038;-75
2021/12/28 06:24:41;;;;;;;45.97;25.58;;;1.90;98.70;;;;;;4980853;28;20516;-74
2021/12/28 06:27:06;;;;;;;43.10;24.45;;;2.00;98.70;;;;;;4980246;28;20081;-74
2021/12/28 06:29:33;;;;;;;47.60;24.48;;;1.90;98.60;;;;;;4977757;28;20054;-74
2021/12/28 06:31:58;;;;;;;45.88;23.90;;;1.90;98.60;;;;;;4961793;28;20033;-74
2021/12/28 06:34:24;;;;;;;47.03;26.05;;;1.90;98.60;;;;;;4965450;28;20019;-75
2021/12/28 06:36:50;;;;;;;41.17;24.63;;;2.00;98.60;;;;;;4965961;28;20031;-75
2021/12/28 06:39:15;;;;;;;49.85;24.90;;;1.90;98.60;;;;;;4954874;28;20027;-74
2021/12/28 06:41:41;;;;;;;40.85;23.45;;;1.90;98.60;;;;;;4962503;28;20526;-75
2021/12/28 06:44:09;;;;;;;45.80;23.25;;;2.00;98.60;;;;;;4962885;28;20076;-75
2021/12/28 06:46:35;;;;;;;41.85;24.73;;;2.00;98.70;;;;;;4958870;28;20027;-75
2021/12/28 06:49:01;;;;;;;40.78;23.83;;;2.00;98.70;;;;;;4955374;28;20031;-75
2021/12/28 06:51:26;;;;;;;41.45;22.77;;;2.10;98.70;;;;;;4961280;28;20033;-75
2021/12/28 06:53:53;;;;;;;46.38;24.60;;;2.10;98.70;;;;;;4963631;28;20023;-75
2021/12/28 06:56:18;;;;;;;44.67;24.48;;;2.10;98.70;;;;;;4963020;28;20066;-75
2021/12/28 06:58:44;;;;;;;39.55;23.00;;;2.10;98.70;;;;;;4965226;28;20066;-74
2021/12/28 07:01:10;;;;;;;43.40;24.00;;;2.10;98.70;;;;;;4960640;28;20034;-75
2021/12/28 07:03:36;;;;;;;40.45;22.58;;;2.10;98.70;;;;;;4971531;28;20027;-74
2021/12/28 07:06:02;;;;;;;41.42;23.10;;;2.10;98.70;;;;;;4961702;28;20038;-75
2021/12/28 07:08:28;;;;;;;46.97;23.52;;;2.20;98.80;;;;;;4971989;28;20193;-74
2021/12/28 07:10:54;;;;;;;43.70;23.70;;;2.10;98.80;;;;;;4964401;28;20222;-75
2021/12/28 07:13:19;;;;;;;39.90;23.10;;;2.20;98.80;;;;;;4980895;28;20097;-74
2021/12/28 07:15:45;;;;;;;40.60;22.23;;;2.10;98.70;;;;;;4963899;28;20355;-74
2021/12/28 07:18:11;;;;;;;37.85;22.55;;;2.10;98.70;;;;;;4961682;28;20175;-75
2021/12/28 07:20:36;;;;;;;43.92;22.98;;;2.00;98.70;;;;;;4979141;28;20096;-75
2021/12/28 07:23:03;;;;;;;43.15;22.27;;;2.00;98.70;;;;;;4958211;28;20510;-75
2021/12/28 07:25:29;;;;;;;39.00;22.45;;;1.90;98.80;;;;;;4963480;28;20196;-74
2021/12/28 07:27:54;;;;;;;47.50;22.77;;;1.90;98.80;;;;;;4965835;28;20074;-75
2021/12/28 07:30:20;;;;;;;49.58;23.45;;;2.00;98.90;;;;;;4961646;28;20034;-74
2021/12/28 07:32:46;;;;;;;39.95;23.90;;;1.90;98.90;;;;;;4962707;28;20150;-75
2021/12/28 07:35:12;;;;;;;42.75;22.83;;;2.00;99.00;;;;;;4959925;28;20082;-75
2021/12/28 07:37:38;;;;;;;51.83;24.02;;;2.00;99.00;;;;;;4979724;28;20053;-75
2021/12/28 07:40:05;;;;;;;46.90;23.63;;;2.00;99.00;;;;;;4959442;28;20467;-75
2021/12/28 07:42:31;;;;;;;55.20;26.60;;;2.10;99.00;;;;;;4976448;28;20034;-76
2021/12/28 07:44:56;;;;;;;48.30;24.95;;;2.10;99.00;;;;;;4965632;28;20035;-75
2021/12/28 07:47:22;;;;;;;55.97;26.08;;;2.10;99.00;;;;;;4975259;28;20037;-74
2021/12/28 07:49:48;;;;;;;58.83;25.55;;;2.10;99.00;;;;;;4962850;28;20472;-74
2021/12/28 07:52:13;;;;;;;58.85;26.40;;;2.10;99.00;;;;;;4979473;28;20348;-75
2021/12/28 07:54:39;;;;;;;58.53;26.13;;;2.10;99.00;;;;;;4963363;28;20027;-75
2021/12/28 07:57:05;;;;;;;63.38;27.50;;;2.10;99.00;;;;;;4979219;28;20523;-75
2021/12/28 07:59:30;;;;;;;59.38;27.73;;;2.10;99.00;;;;;;4961988;28;20735;-75
2021/12/28 08:01:56;;;;;;;52.35;26.23;;;2.10;99.00;;;;;;4962916;28;20090;-75
2021/12/28 08:04:21;;;;;;;61.85;28.33;;;2.10;99.00;;;;;;4966440;28;20035;-75
2021/12/28 08:06:47;;;;;;;61.05;27.17;;;2.10;99.00;;;;;;4968470;28;20083;-75
2021/12/28 08:09:13;;;;;;;54.63;25.25;;;2.10;99.00;;;;;;4967945;28;20063;-75
2021/12/28 08:11:38;;;;;;;61.20;27.02;;;2.20;99.00;;;;;;4966442;28;20035;-74
2021/12/28 08:14:04;;;;;;;62.47;26.13;;;2.20;99.10;;;;;;4967058;28;20069;-75
2021/12/28 08:16:30;;;;;;;65.05;27.45;;;2.20;99.10;;;;;;4970188;28;20129;-75
2021/12/28 08:18:56;;;;;;;57.53;25.60;;;2.20;99.10;;;;;;4969701;28;20027;-75
2021/12/28 08:21:21;;;;;;;63.00;25.15;;;2.20;99.10;;;;;;4970287;28;20032;-75
2021/12/28 08:23:47;;;;;;;60.53;26.05;;;2.20;99.10;;;;;;4965016;28;20029;-75
2021/12/28 08:26:13;;;;;;;65.43;25.98;;;2.20;99.10;;;;;;4961544;28;20348;-74
2021/12/28 08:28:38;;;;;;;56.95;26.08;;;2.20;99.10;;;;;;4982041;28;20086;-74
2021/12/28 08:31:04;;;;;;;56.00;22.95;;;2.30;99.10;;;;;;4978145;28;20756;-75
2021/12/28 08:33:30;;;;;;;62.55;24.17;;;2.30;99.10;;;;;;4980930;28;20109;-75
2021/12/28 08:35:56;;;;;;;67.15;25.23;;;2.30;99.10;;;;;;4969671;28;20030;-75
2021/12/28 08:38:21;;;;;;;66.78;24.85;;;2.30;99.10;;;;;;4983818;28;20027;-75
2021/12/28 08:40:47;;;;;;;57.78;24.80;;;2.30;99.10;;;;;;4968939;28;20023;-77
2021/12/28 08:43:13;;;;;;;61.45;25.27;;;2.30;99.10;;;;;;4966487;28;20038;-75
2021/12/28 08:45:40;;;;;;;61.00;25.67;;;2.30;99.10;;;;;;4978423;28;20356;-75
2021/12/28 08:48:07;;;;;;;69.38;26.05;;;2.40;99.10;;;;;;4965335;28;20046;-75
2021/12/28 08:50:34;;;;;;;68.03;27.23;;;2.40;99.10;;;;;;4964514;28;20117;-74
2021/12/28 08:53:00;;;;;;;62.85;25.55;;;2.30;99.10;;;;;;4970769;28;20172;-75
2021/12/28 08:55:26;;;;;;;64.50;24.80;;;2.40;99.20;;;;;;4967035;28;20031;-75
2021/12/28 08:57:52;;;;;;;70.65;24.58;;;2.40;99.10;;;;;;4965215;28;20050;-76
2021/12/28 09:00:22;;;;;;;67.75;24.40;;;2.40;99.10;;;;;;4960922;28;20133;-75
2021/12/28 09:02:49;;;;;;;55.53;24.63;;;2.40;99.10;;;;;;4963976;28;20075;-75
2021/12/28 09:05:14;;;;;;;64.43;25.63;;;2.40;99.20;;;;;;4983654;28;20035;-74
2021/12/28 09:07:40;;;;;;;62.55;24.25;;;2.40;99.20;;;;;;4964397;28;20026;-74
2021/12/28 09:10:06;;;;;;;51.03;21.48;;;2.40;99.20;;;;;;4982318;28;20039;-75
2021/12/28 09:12:32;;;;;;;52.25;23.70;;;2.40;99.20;;;;;;4981460;28;20101;-74
2021/12/28 09:14:57;;;;;;;56.42;24.30;;;2.50;99.20;;;;;;4964140;28;20043;-74
2021/12/28 09:17:23;;;;;;;52.22;22.58;;;2.50;99.20;;;;;;4979860;28;20057;-75
2021/12/28 09:19:49;;;;;;;55.67;22.70;;;2.50;99.20;;;;;;4965349;28;20026;-74
2021/12/28 09:22:14;;;;;;;58.10;23.45;;;2.50;99.20;;;;;;4965828;28;20039;-74
2021/12/28 09:24:40;;;;;;;53.03;22.45;;;2.60;99.20;;;;;;4982504;28;20498;-75
2021/12/28 09:27:06;;;;;;;61.33;22.23;;;2.60;99.20;;;;;;4964618;28;20031;-75
2021/12/28 09:29:33;;;;;;;52.83;23.30;;;2.60;99.20;;;;;;4981200;28;20268;-74
2021/12/28 09:32:00;;;;;;;57.50;22.05;;;2.60;99.20;;;;;;4962253;28;20101;-75
2021/12/28 09:34:33;;;;;;;56.75;21.25;;;2.60;99.20;;;;;;4968793;28;20067;-75
2021/12/28 09:36:58;;;;;;;57.50;22.05;;;2.60;99.20;;;;;;4970098;28;20591;-76
2021/12/28 09:39:26;;;;;;;51.45;22.10;;;2.60;99.20;;;;;;4965624;28;20033;-74
2021/12/28 09:41:55;;;;;;;47.53;21.63;;;2.70;99.20;;;;;;4964045;28;20486;-75
2021/12/28 09:44:22;;;;;;;49.03;22.65;;;2.70;99.20;;;;;;4964576;28;20419;-73
2021/12/28 09:46:48;;;;;;;55.85;22.55;;;2.70;99.20;;;;;;4964696;28;20118;-75
2021/12/28 09:49:13;;;;;;;50.67;20.88;;;2.70;99.20;;;;;;4962762;28;20046;-74
2021/12/28 09:51:39;;;;;;;53.72;22.85;;;2.70;99.20;;;;;;4959964;28;20241;-73
2021/12/28 09:54:05;;;;;;;44.58;20.35;;;2.70;99.20;;;;;;4965002;28;20412;-74
2021/12/28 09:56:33;;;;;;;50.97;21.38;;;2.80;99.20;;;;;;4959408;28;20399;-76
2021/12/28 09:59:00;;;;;;;51.45;21.23;;;2.80;99.20;;;;;;4965408;28;20089;-75
2021/12/28 10:01:26;;;;;;;42.70;19.98;;;2.80;99.20;;;;;;4960222;28;20030;-74
2021/12/28 10:03:52;;;;;;;46.58;21.58;;;2.80;99.30;;;;;;4978445;28;20319;-75
2021/12/28 10:06:25;;;;;;;47.05;20.73;;;2.90;99.20;;;;;;4984340;28;20058;-75
2021/12/28 10:09:03;;;;;;;46.53;20.10;;;2.90;99.20;;;;;;4955855;28;20663;-75
2021/12/28 10:11:37;;;;;;;44.78;19.77;;;2.90;99.30;;;;;;4982087;28;20054;-75
2021/12/28 10:14:11;;;;;;;46.00;19.98;;;2.90;99.20;;;;;;4965165;28;20035;-75
2021/12/28 10:16:53;;;;;;;37.92;19.02;;;2.90;99.20;;;;;;4961175;28;20035;-75
2021/12/28 10:19:29;;;;;;;37.90;19.70;;;2.90;99.30;;;;;;4966482;28;20061;-74
2021/12/28 10:21:54;;;;;;;38.70;19.27;;;3.00;99.30;;;;;;4967518;28;20035;-75
2021/12/28 10:24:36;;;;;;;42.83;19.75;;;3.00;99.30;;;;;;4963626;28;20043;-74
2021/12/28 10:27:16;;;;;;;42.40;19.23;;;3.10;99.30;;;;;;4977274;28;20038;-74
2021/12/28 10:29:42;;;;;;;44.22;19.05;;;3.10;99.30;;;;;;4980659;28;20098;-75
2021/12/28 10:32:21;;;;;;;37.25;19.55;;;3.20;99.20;;;;;;4981989;28;20023;-75
2021/12/28 10:35:00;;;;;;;41.50;19.13;;;3.20;99.20;;;;;;4969067;28;20375;-75
2021/12/28 10:37:30;;;;;;;36.83;18.13;;;3.30;99.20;;;;;;4969730;28;20578;-75
2021/12/28 10:39:58;;;;;;;34.50;18.50;;;3.30;99.20;;;;;;4965645;28;20244;-73
2021/12/28 10:42:47;;;;;;;38.50;19.30;;;3.40;99.20;;;;;;4961425;28;20031;-75
2021/12/28 10:45:25;;;;;;;36.25;18.85;;;3.40;99.10;;;;;;4965464;28;20026;-75
2021/12/28 10:47:52;;;;;;;30.70;17.73;;;3.40;99.10;;;;;;4962928;28;20154;-76
2021/12/28 10:50:29;;;;;;;40.53;18.33;;;3.50;99.10;;;;;;4978844;28;20456;-76
2021/12/28 10:53:05;;;;;;;32.20;16.27;;;3.50;99.10;;;;;;4964104;28;20133;-76
2021/12/28 10:55:31;;;;;;;30.52;16.75;;;3.60;99.10;;;;;;4958764;28;20411;-75
2021/12/28 10:57:57;;;;;;;30.60;16.60;;;3.60;99.10;;;;;;4962640;28;20027;-75
2021/12/28 11:00:29;;;;;;;30.33;16.08;;;3.60;99.10;;;;;;4964626;28;20124;-75
2021/12/28 11:03:16;;;;;;;39.80;16.55;;;3.70;99.00;;;;;;4962860;28;20076;-75
2021/12/28 11:05:43;;;;;;;29.27;15.88;;;3.70;99.00;;;;;;4960923;28;20296;-75
2021/12/28 11:08:10;;;;;;;27.23;16.05;;;3.70;98.90;;;;;;4976871;28;20065;-75
2021/12/28 11:10:42;;;;;;;27.42;15.55;;;3.80;98.90;;;;;;4978131;28;20034;-75
2021/12/28 11:13:08;;;;;;;26.95;14.55;;;4.00;98.90;;;;;;4978117;28;20582;-75
2021/12/28 11:15:37;;;;;;;26.52;14.90;;;4.00;98.80;;;;;;4963207;28;20031;-74
2021/12/28 11:18:17;;;;;;;23.58;13.60;;;4.00;98.70;;;;;;4958488;28;20019;-75
2021/12/28 11:20:43;;;;;;;23.90;14.27;;;4.10;98.50;;;;;;4962684;28;20125;-75
2021/12/28 11:23:18;;;;;;;25.13;13.60;;;4.10;98.60;;;;;;4975250;28;22242;-75
2021/12/28 11:25:45;;;;;;;29.10;14.25;;;4.10;98.50;;;;;;4977215;28;20027;-75
2021/12/28 11:28:19;;;;;;;22.77;12.93;;;4.20;98.50;;;;;;4979785;28;20469;-75
2021/12/28 11:31:09;;;;;;;23.83;13.23;;;4.30;98.40;;;;;;4955120;28;20487;-74
2021/12/28 11:33:47;;;;;;;22.50;11.52;;;4.40;98.20;;;;;;4978241;28;20050;-75
2021/12/28 11:36:14;;;;;;;20.42;11.65;;;4.40;98.20;;;;;;4961736;28;20023;-75
2021/12/28 11:38:40;;;;;;;22.73;11.93;;;4.40;98.00;;;;;;4974871;28;20095;-75
2021/12/28 11:41:06;;;;;;;24.02;12.45;;;4.40;97.70;;;;;;4965239;28;20026;-74
2021/12/28 11:43:34;;;;;;;19.13;12.02;;;4.40;97.70;;;;;;4980229;28;20126;-73
2021/12/28 11:45:59;;;;;;;24.52;11.75;;;4.50;97.60;;;;;;4959466;28;20079;-73
2021/12/28 11:48:25;;;;;;;18.63;11.73;;;4.50;97.60;;;;;;4978523;28;20144;-73
2021/12/28 11:50:51;;;;;;;23.13;11.13;;;4.50;97.50;;;;;;4961874;28;20058;-74
2021/12/28 11:53:17;;;;;;;23.38;11.43;;;4.60;97.40;;;;;;4960797;28;20432;-73
2021/12/28 11:55:43;;;;;;;18.75;11.02;;;4.60;97.40;;;;;;4954857;28;20081;-75
2021/12/28 11:58:09;;;;;;;22.80;11.20;;;4.60;97.30;;;;;;4961763;28;20539;-75
2021/12/28 12:00:43;;;;;;;22.63;11.73;;;4.80;97.20;;;;;;4977791;28;20043;-75
2021/12/28 12:03:33;;;;;;;23.13;11.88;;;4.80;96.90;;;;;;4960280;28;20089;-75
2021/12/28 19:38:03;;;;;;;36.83;20.13;;;3.80;99.60;;;;;;4920006;29;20394;-74
2021/12/28 19:40:32;;;;;;;37.67;19.95;;;3.80;99.60;;;;;;4922605;28;20121;-76
2021/12/28 19:42:58;;;;;;;37.58;19.88;;;3.80;99.60;;;;;;4930674;29;20019;-74
2021/12/28 19:45:24;;;;;;;38.30;19.67;;;3.80;99.60;;;;;;4927212;29;20035;-77
2021/12/28 19:47:50;;;;;;;40.55;20.55;;;3.80;99.70;;;;;;4923366;29;20510;-74
2021/12/28 19:50:17;;;;;;;40.10;21.35;;;3.90;99.70;;;;;;4938583;29;20124;-75
2021/12/28 19:52:44;;;;;;;35.95;18.80;;;3.90;99.70;;;;;;4934265;28;20388;-76
2021/12/28 19:55:12;;;;;;;29.73;18.08;;;3.90;99.70;;;;;;4922405;29;20059;-74
2021/12/28 19:57:38;;;;;;;38.50;18.65;;;4.10;99.70;;;;;;4917881;29;20107;-76
2021/12/28 20:00:11;;;;;;;39.55;18.80;;;4.10;99.80;;;;;;4922312;29;20020;-78
2021/12/28 20:02:36;;;;;;;38.95;19.10;;;4.10;99.80;;;;;;4928646;29;20023;-74
2021/12/28 20:05:07;;;;;;;42.95;18.50;;;4.10;99.80;;;;;;4923442;29;20029;-78
2021/12/28 20:07:37;;;;;;;39.97;19.02;;;4.20;99.80;;;;;;4929059;29;20055;-75
2021/12/28 20:10:07;;;;;;;43.67;18.67;;;4.10;99.80;;;;;;4929783;29;20016;-74
2021/12/28 20:12:33;;;;;;;38.17;18.42;;;4.10;99.70;;;;;;4922000;29;20436;-74
2021/12/28 20:14:59;;;;;;;44.97;18.98;;;4.10;99.80;;;;;;4922226;29;20094;-73